Snow/Ice From: 17-12-2017 10:00 Until: 18-12-2017 06:00 warning for: Snow/Ice Level: Yellow info button

Although rather usual in this region, locally or potentially dangerous phenomena are expected. (such as local winds, summer thunderstorms, rising streams or high waves) Be aware and pay attention to the latest weather updates, especially if you carry out activities exposed to weather or close to a stream or shoreline. 


Meteo18 Weather Cam more information Meteo18 Weather Cam


Thunder radar more information blitzortung!


warning for Snow/Ice more information rain snow radar


Visit our other weather sites:

Template documentation
and downloads

And another site



Weather Underground History page Text

Daily Summary for September 6, 2017 Units:  English    Metric   Both
« Previous Day
Next Day »
Daily Weekly Monthly Yearly Custom
  High: Low: Average:
Temperature: 68.7 °F 56.8 °F 62.8 °F
Dew Point: 59.7 °F 47.7 °F 52 °F
Humidity: 91 % 48 % 69 %
Wind Speed: 13 mph 0 mph 4.2 mph
Wind Gust: 18 mph - -
Wind:- - West
Pressure: 30.3 in 30.2 in -
Precipitation: 0 in    
Historical Graphs
 
 
Tabular Data for September 6, 2017
Time Temperature Dew Point Pressure Wind Wind Speed Wind Gust Humidity Rainfall Rate (Hourly)
00:02 67.1 °F 59.7 °F 30.2 in WSW 3 mph 11 mph 77 % 0 in
00:07 66.9 °F 59.5 °F 30.2 in WSW 6 mph 11 mph 77 % 0 in
00:12 66.7 °F 59.7 °F 30.2 in West 6 mph 11 mph 78 % 0 in
00:17 66.6 °F 59.5 °F 30.2 in WSW 2 mph 10 mph 78 % 0 in
00:22 66.6 °F 59.5 °F 30.2 in WSW 6 mph 9 mph 78 % 0 in
00:32 66.2 °F 59.5 °F 30.2 in SW 2 mph 8 mph 79 % 0 in
00:42 66 °F 59.4 °F 30.2 in West 6 mph 8 mph 79 % 0 in
00:47 66 °F 59.4 °F 30.2 in SW 3 mph 12 mph 79 % 0 in
00:52 66 °F 59.4 °F 30.2 in WSW 6 mph 12 mph 79 % 0 in
00:57 65.8 °F 59.2 °F 30.2 in SW 2 mph 12 mph 79 % 0 in
01:02 65.7 °F 59.4 °F 30.2 in WSW 5 mph 11 mph 80 % 0 in
01:07 65.5 °F 59.2 °F 30.2 in WSW 5 mph 11 mph 80 % 0 in
01:12 65.5 °F 59.2 °F 30.2 in West 5 mph 11 mph 80 % 0 in
01:17 65.1 °F 59.2 °F 30.2 in WSW 4 mph 9 mph 81 % 0 in
01:22 64.9 °F 59 °F 30.2 in West 3 mph 8 mph 81 % 0 in
01:27 64.8 °F 58.8 °F 30.2 in West 2 mph 7 mph 81 % 0 in
01:32 64.6 °F 59 °F 30.2 in WNW 3 mph 6 mph 82 % 0 in
01:37 64.6 °F 59 °F 30.2 in WSW 5 mph 6 mph 82 % 0 in
01:42 64.6 °F 59 °F 30.2 in West 4 mph 8 mph 82 % 0 in
01:47 64.6 °F 59.4 °F 30.2 in West 4 mph 9 mph 83 % 0 in
01:52 64.4 °F 59.2 °F 30.2 in WSW 5 mph 9 mph 83 % 0 in
01:57 64.2 °F 59 °F 30.2 in West 3 mph 8 mph 83 % 0 in
02:02 64.2 °F 59 °F 30.2 in West 9 mph 9 mph 83 % 0 in
02:07 64.2 °F 59 °F 30.2 in WNW 6 mph 11 mph 83 % 0 in
02:12 64 °F 58.8 °F 30.2 in WNW 4 mph 11 mph 83 % 0 in
02:17 63.7 °F 58.5 °F 30.2 in WNW 4 mph 11 mph 83 % 0 in
02:22 63.7 °F 58.5 °F 30.2 in WNW 6 mph 11 mph 83 % 0 in
02:27 63.3 °F 58.5 °F 30.2 in West 6 mph 12 mph 84 % 0 in
02:32 63.1 °F 58.3 °F 30.2 in WNW 5 mph 12 mph 84 % 0 in
02:37 63 °F 58.1 °F 30.2 in WNW 3 mph 10 mph 84 % 0 in
02:42 62.8 °F 57.9 °F 30.2 in West 2 mph 10 mph 84 % 0 in
02:47 62.6 °F 57.7 °F 30.2 in West 3 mph 9 mph 84 % 0 in
02:52 62.4 °F 57.6 °F 30.2 in West 6 mph 7 mph 84 % 0 in
02:57 62.4 °F 57.6 °F 30.2 in West 3 mph 11 mph 84 % 0 in
03:02 62.4 °F 57.6 °F 30.2 in WSW 7 mph 11 mph 84 % 0 in
03:07 62.2 °F 57.4 °F 30.2 in West 3 mph 11 mph 84 % 0 in
03:12 62.1 °F 57.2 °F 30.2 in West 1 mph 11 mph 84 % 0 in
03:17 61.9 °F 57 °F 30.2 in West 4 mph 11 mph 84 % 0 in
03:22 61.9 °F 57.4 °F 30.2 in WNW 3 mph 7 mph 85 % 0 in
03:27 62.1 °F 57.6 °F 30.2 in West 2 mph 9 mph 85 % 0 in
03:32 62.1 °F 57.6 °F 30.2 in WNW 7 mph 10 mph 85 % 0 in
03:37 62.1 °F 57.6 °F 30.2 in West 9 mph 10 mph 85 % 0 in
03:42 62.1 °F 57.6 °F 30.2 in WSW 5 mph 10 mph 85 % 0 in
03:47 62.1 °F 57.6 °F 30.2 in West 3 mph 10 mph 85 % 0 in
03:52 62.1 °F 57.6 °F 30.2 in WSW 3 mph 10 mph 85 % 0 in
03:57 62.1 °F 57.6 °F 30.2 in West 7 mph 10 mph 85 % 0 in
04:02 62.1 °F 57.6 °F 30.2 in WSW 7 mph 8 mph 85 % 0 in
04:07 62.1 °F 57.6 °F 30.2 in WSW 2 mph 8 mph 85 % 0 in
04:12 61.9 °F 57.4 °F 30.2 in NW 4 mph 8 mph 85 % 0 in
04:17 61.9 °F 57.4 °F 30.2 in West 2 mph 10 mph 85 % 0 in
04:22 61.9 °F 57.4 °F 30.2 in WSW 3 mph 10 mph 85 % 0 in
04:27 61.9 °F 57.4 °F 30.2 in WNW 3 mph 8 mph 85 % 0 in
04:32 61.7 °F 57.2 °F 30.2 in SW 2 mph 8 mph 85 % 0 in
04:37 61.7 °F 57.2 °F 30.2 in WSW 4 mph 9 mph 85 % 0 in
04:42 61.7 °F 57.2 °F 30.2 in West 3 mph 9 mph 85 % 0 in
04:47 61.7 °F 57.2 °F 30.2 in WSW 4 mph 9 mph 85 % 0 in
04:52 61.5 °F 57 °F 30.2 in WNW 5 mph 9 mph 85 % 0 in
04:57 61.5 °F 57.4 °F 30.2 in WNW 6 mph 10 mph 86 % 0 in
05:02 61.2 °F 57.6 °F 30.2 in West 5 mph 12 mph 88 % 0 in
05:07 60.4 °F 57.2 °F 30.2 in NNW 8 mph 12 mph 89 % 0 in
05:17 59.2 °F 55.9 °F 30.2 in WNW 3 mph 15 mph 89 % 0 in
05:22 58.8 °F 55.9 °F 30.2 in WNW 7 mph 15 mph 90 % 0 in
05:27 58.6 °F 55.9 °F 30.2 in NW 2 mph 11 mph 91 % 0 in
05:32 58.5 °F 55.8 °F 30.2 in WNW 3 mph 11 mph 91 % 0 in
05:37 58.5 °F 55.8 °F 30.2 in WNW 6 mph 10 mph 91 % 0 in
05:42 58.5 °F 55.8 °F 30.2 in WSW 3 mph 10 mph 91 % 0 in
05:47 58.5 °F 55.8 °F 30.2 in WNW 6 mph 9 mph 91 % 0 in
05:52 58.5 °F 55.6 °F 30.2 in WNW 3 mph 10 mph 90 % 0 in
05:57 58.5 °F 55.6 °F 30.2 in WNW 8 mph 10 mph 90 % 0 in
06:02 58.5 °F 55.6 °F 30.2 in NW 4 mph 11 mph 90 % 0 in
06:07 58.5 °F 55.6 °F 30.2 in WNW 3 mph 11 mph 90 % 0 in
06:12 58.5 °F 55.2 °F 30.2 in NNW 1 mph 11 mph 89 % 0 in
06:17 58.6 °F 55.4 °F 30.2 in NW 6 mph 10 mph 89 % 0 in
06:22 58.6 °F 55.4 °F 30.2 in West 3 mph 10 mph 89 % 0 in
06:27 58.6 °F 55 °F 30.2 in WNW 4 mph 8 mph 88 % 0 in
06:32 58.6 °F 55 °F 30.2 in NNW 3 mph 8 mph 88 % 0 in
06:37 58.6 °F 55 °F 30.2 in WNW 4 mph 8 mph 88 % 0 in
06:42 58.6 °F 54.9 °F 30.2 in WNW 7 mph 8 mph 87 % 0 in
06:52 58.6 °F 54.9 °F 30.2 in NNW 3 mph 11 mph 87 % 0 in
06:57 58.5 °F 54.7 °F 30.2 in NW 2 mph 10 mph 87 % 0 in
07:02 58.5 °F 54.3 °F 30.2 in NNW 2 mph 10 mph 86 % 0 in
07:07 58.6 °F 54.5 °F 30.2 in WNW 5 mph 10 mph 86 % 0 in
07:12 58.5 °F 54.3 °F 30.2 in WNW 5 mph 10 mph 86 % 0 in
07:17 58.5 °F 54.3 °F 30.2 in NW 5 mph 11 mph 86 % 0 in
07:22 58.5 °F 54 °F 30.2 in WNW 7 mph 11 mph 85 % 0 in
07:32 58.3 °F 53.4 °F 30.2 in NW 10 mph 13 mph 84 % 0 in
07:37 58.3 °F 53.4 °F 30.2 in WNW 6 mph 13 mph 84 % 0 in
07:42 58.3 °F 53.4 °F 30.2 in WNW 7 mph 12 mph 84 % 0 in
07:52 57.9 °F 52.7 °F 30.3 in WNW 6 mph 16 mph 83 % 0 in
07:57 57.9 °F 53.1 °F 30.3 in Calm   16 mph 84 % 0 in
08:02 57.7 °F 52.7 °F 30.3 in WNW 7 mph 10 mph 83 % 0 in
08:07 57.6 °F 52.5 °F 30.3 in NW 5 mph 12 mph 83 % 0 in
08:12 57.6 °F 52.5 °F 30.3 in WNW 4 mph 12 mph 83 % 0 in
08:17 57.4 °F 52.5 °F 30.3 in WNW 3 mph 12 mph 84 % 0 in
08:22 57 °F 52.2 °F 30.3 in WNW 5 mph 10 mph 84 % 0 in
08:27 56.8 °F 52 °F 30.3 in WNW 3 mph 10 mph 84 % 0 in
08:32 56.8 °F 52 °F 30.3 in WNW 7 mph 9 mph 84 % 0 in
08:37 57 °F 52.2 °F 30.3 in WNW 8 mph 9 mph 84 % 0 in
08:42 57.4 °F 52.3 °F 30.3 in WSW 5 mph 13 mph 83 % 0 in
08:47 57.6 °F 52.5 °F 30.3 in West 5 mph 13 mph 83 % 0 in
08:52 57.7 °F 52.7 °F 30.3 in Calm   13 mph 83 % 0 in
08:57 57.9 °F 52.5 °F 30.3 in West 5 mph 9 mph 82 % 0 in
09:02 58.3 °F 52.5 °F 30.3 in West 3 mph 9 mph 81 % 0 in
09:07 58.6 °F 52.2 °F 30.3 in NW 3 mph 7 mph 79 % 0 in
09:12 59 °F 51.8 °F 30.3 in WNW 7 mph 13 mph 77 % 0 in
09:17 59.2 °F 51.6 °F 30.3 in West 7 mph 13 mph 76 % 0 in
09:22 58.6 °F 51.4 °F 30.3 in WSW 4 mph 12 mph 77 % 0 in
09:27 58.5 °F 51.3 °F 30.3 in WNW 4 mph 10 mph 77 % 0 in
09:32 58.5 °F 51.6 °F 30.3 in NNW 3 mph 10 mph 78 % 0 in
09:42 58.3 °F 51.4 °F 30.3 in West 6 mph 8 mph 78 % 0 in
09:47 58.3 °F 51.4 °F 30.3 in WNW 3 mph 11 mph 78 % 0 in
09:52 58.3 °F 51.4 °F 30.3 in West 3 mph 11 mph 78 % 0 in
09:57 58.3 °F 51.8 °F 30.3 in WNW 4 mph 10 mph 79 % 0 in
10:02 58.3 °F 51.8 °F 30.3 in West 7 mph 10 mph 79 % 0 in
10:07 58.1 °F 51.6 °F 30.3 in West 5 mph 13 mph 79 % 0 in
10:12 58.3 °F 52.2 °F 30.3 in WNW 5 mph 13 mph 80 % 0 in
10:17 58.3 °F 51.8 °F 30.3 in West 6 mph 13 mph 79 % 0 in
10:22 58.5 °F 52 °F 30.3 in West 1 mph 9 mph 79 % 0 in
10:27 58.6 °F 51.1 °F 30.3 in WNW 8 mph 9 mph 76 % 0 in
10:32 58.5 °F 50.5 °F 30.3 in NW 6 mph 14 mph 75 % 0 in
10:37 58.6 °F 50.4 °F 30.3 in WSW 7 mph 14 mph 74 % 0 in
10:42 58.6 °F 50 °F 30.3 in WSW 7 mph 14 mph 73 % 0 in
10:47 58.6 °F 50 °F 30.3 in WNW 6 mph 12 mph 73 % 0 in
10:52 58.6 °F 48.6 °F 30.3 in WNW 13 mph 14 mph 69 % 0 in
10:57 58.8 °F 48.2 °F 30.3 in West 9 mph 14 mph 68 % 0 in
11:02 58.8 °F 48.2 °F 30.3 in WNW 6 mph 14 mph 68 % 0 in
11:07 59.2 °F 48.6 °F 30.3 in WNW 7 mph 14 mph 68 % 0 in
11:12 59.4 °F 48.4 °F 30.3 in West 6 mph 14 mph 67 % 0 in
11:17 59.5 °F 48.2 °F 30.3 in WNW 8 mph 14 mph 66 % 0 in
11:22 60.1 °F 49.1 °F 30.3 in NW 2 mph 13 mph 67 % 0 in
11:27 60.4 °F 49.1 °F 30.3 in West 10 mph 12 mph 66 % 0 in
11:37 60.4 °F 49.1 °F 30.3 in WNW 5 mph 13 mph 66 % 0 in
11:42 60.4 °F 49.1 °F 30.3 in WNW 5 mph 13 mph 66 % 0 in
11:52 60.8 °F 48.6 °F 30.3 in WNW 4 mph 11 mph 64 % 0 in
11:57 61 °F 48.4 °F 30.3 in NW 5 mph 11 mph 63 % 0 in
12:02 61.5 °F 49.6 °F 30.3 in NW 3 mph 11 mph 65 % 0 in
12:07 61.3 °F 49.1 °F 30.3 in West 3 mph 8 mph 64 % 0 in
12:12 61.2 °F 48.9 °F 30.3 in West 7 mph 16 mph 64 % 0 in
12:17 61.2 °F 48.9 °F 30.3 in WSW 1 mph 16 mph 64 % 0 in
12:22 61.9 °F 49.6 °F 30.3 in West 4 mph 16 mph 64 % 0 in
12:32 62.2 °F 49.5 °F 30.3 in North 4 mph 10 mph 63 % 0 in
12:42 62.8 °F 50 °F 30.3 in WNW 3 mph 9 mph 63 % 0 in
12:47 62.8 °F 49.1 °F 30.3 in WNW 8 mph 10 mph 61 % 0 in
12:52 62.6 °F 49.8 °F 30.3 in SW 2 mph 10 mph 63 % 0 in
12:57 62.2 °F 50 °F 30.3 in West 5 mph 11 mph 64 % 0 in
13:02 62.2 °F 50 °F 30.3 in West 4 mph 11 mph 64 % 0 in
13:07 63 °F 50.2 °F 30.3 in West 4 mph 11 mph 63 % 0 in
13:12 63.5 °F 49.3 °F 30.3 in WNW 6 mph 10 mph 60 % 0 in
13:17 63.7 °F 49.1 °F 30.3 in WNW 11 mph 11 mph 59 % 0 in
13:22 63.3 °F 48.7 °F 30.3 in West 5 mph 12 mph 59 % 0 in
13:32 63.3 °F 49.3 °F 30.3 in NW 3 mph 12 mph 60 % 0 in
13:37 63.5 °F 48.9 °F 30.3 in WNW 7 mph 11 mph 59 % 0 in
13:42 63.7 °F 49.5 °F 30.3 in WSW 2 mph 11 mph 60 % 0 in
13:47 64.2 °F 48.7 °F 30.3 in West 11 mph 13 mph 57 % 0 in
13:52 64.2 °F 48.7 °F 30.3 in WSW 4 mph 13 mph 57 % 0 in
13:57 64.4 °F 48.4 °F 30.3 in WNW 6 mph 13 mph 56 % 0 in
14:02 64.2 °F 48.2 °F 30.3 in West 4 mph 13 mph 56 % 0 in
14:07 64.6 °F 49.5 °F 30.3 in WSW 4 mph 13 mph 58 % 0 in
14:12 64.9 °F 48.9 °F 30.3 in West 8 mph 15 mph 56 % 0 in
14:17 65.5 °F 48.9 °F 30.3 in West 4 mph 15 mph 55 % 0 in
14:22 65.5 °F 49.3 °F 30.3 in WNW 1 mph 15 mph 56 % 0 in
14:27 65.1 °F 48 °F 30.3 in NNE 3 mph 13 mph 54 % 0 in
14:32 65.3 °F 48.7 °F 30.3 in West 7 mph 9 mph 55 % 0 in
14:37 65.7 °F 49.1 °F 30.3 in NW 5 mph 9 mph 55 % 0 in
14:42 65.8 °F 48.7 °F 30.3 in WNW 3 mph 9 mph 54 % 0 in
14:47 66 °F 49.5 °F 30.3 in North 3 mph 9 mph 55 % 0 in
14:52 66.2 °F 49.6 °F 30.3 in NNW 5 mph 9 mph 55 % 0 in
14:57 66 °F 49.5 °F 30.3 in NW 3 mph 11 mph 55 % 0 in
15:02 66 °F 48.9 °F 30.3 in WNW 3 mph 11 mph 54 % 0 in
15:07 65.8 °F 49.3 °F 30.3 in WNW 7 mph 10 mph 55 % 0 in
15:12 66 °F 49.5 °F 30.3 in NW 5 mph 11 mph 55 % 0 in
15:17 65.8 °F 48.7 °F 30.3 in West 3 mph 11 mph 54 % 0 in
15:22 66 °F 49.5 °F 30.3 in WNW 4 mph 11 mph 55 % 0 in
15:27 66.2 °F 49.1 °F 30.2 in WNW 5 mph 11 mph 54 % 0 in
15:32 66.4 °F 49.3 °F 30.2 in NNW 1 mph 9 mph 54 % 0 in
15:37 66.4 °F 49.3 °F 30.2 in WNW 5 mph 9 mph 54 % 0 in
15:42 66.4 °F 48.7 °F 30.2 in WNW 3 mph 9 mph 53 % 0 in
15:47 66.6 °F 49.8 °F 30.2 in NNW 4 mph 9 mph 55 % 0 in
15:57 67.5 °F 48.7 °F 30.2 in WNW 7 mph 9 mph 51 % 0 in
16:02 68.4 °F 48.9 °F 30.2 in WNW 5 mph 11 mph 50 % 0 in
16:07 68.2 °F 47.7 °F 30.2 in West 5 mph 13 mph 48 % 0 in
16:12 68.2 °F 47.7 °F 30.2 in West 9 mph 17 mph 48 % 0 in
16:17 67.6 °F 47.8 °F 30.2 in West 12 mph 17 mph 49 % 0 in
16:22 68.7 °F 48.2 °F 30.2 in West 8 mph 15 mph 48 % 0 in
16:27 68.7 °F 48.2 °F 30.2 in South 3 mph 18 mph 48 % 0 in
16:32 68.4 °F 47.8 °F 30.2 in West 6 mph 18 mph 48 % 0 in
16:37 68 °F 48.2 °F 30.2 in SW 5 mph 18 mph 49 % 0 in
16:42 67.8 °F 48.6 °F 30.2 in WNW 13 mph 15 mph 50 % 0 in
16:47 67.6 °F 48.4 °F 30.2 in WSW 5 mph 14 mph 50 % 0 in
16:52 67.3 °F 48 °F 30.2 in WNW 5 mph 13 mph 50 % 0 in
16:57 67.3 °F 48 °F 30.2 in WNW 9 mph 13 mph 50 % 0 in
17:02 67.3 °F 48.6 °F 30.2 in West 4 mph 11 mph 51 % 0 in
17:07 67.1 °F 47.8 °F 30.2 in WNW 5 mph 11 mph 50 % 0 in
17:12 67.1 °F 48.4 °F 30.2 in WNW 4 mph 11 mph 51 % 0 in
17:17 67.3 °F 48 °F 30.2 in NW 4 mph 11 mph 50 % 0 in
17:22 67.5 °F 48.2 °F 30.2 in WNW 8 mph 11 mph 50 % 0 in
17:27 67.1 °F 48.4 °F 30.2 in SSW 4 mph 12 mph 51 % 0 in
17:32 66.9 °F 47.7 °F 30.2 in West 10 mph 13 mph 50 % 0 in
17:37 66.7 °F 48 °F 30.2 in WNW 5 mph 13 mph 51 % 0 in
17:42 66.7 °F 48 °F 30.2 in West 3 mph 13 mph 51 % 0 in
17:47 66.7 °F 48 °F 30.2 in West 4 mph 13 mph 51 % 0 in
17:52 66.7 °F 48.6 °F 30.2 in WNW 4 mph 11 mph 52 % 0 in
17:57 66.7 °F 48.6 °F 30.2 in West 5 mph 11 mph 52 % 0 in
18:02 66.6 °F 48.9 °F 30.2 in NW 7 mph 11 mph 53 % 0 in
18:07 66.6 °F 48.9 °F 30.2 in North 5 mph 12 mph 53 % 0 in
18:12 66.4 °F 48.7 °F 30.2 in WNW 3 mph 12 mph 53 % 0 in
18:17 66.2 °F 48.6 °F 30.2 in WNW 8 mph 12 mph 53 % 0 in
18:22 66 °F 48.9 °F 30.2 in West 3 mph 12 mph 54 % 0 in
18:32 66.2 °F 49.1 °F 30.2 in NNW 3 mph 10 mph 54 % 0 in
18:42 66 °F 48.4 °F 30.2 in West 8 mph 10 mph 53 % 0 in
18:47 66 °F 48.4 °F 30.2 in WNW 7 mph 11 mph 53 % 0 in
18:52 65.8 °F 48.2 °F 30.2 in West 2 mph 12 mph 53 % 0 in
18:57 65.8 °F 48.7 °F 30.2 in NW 3 mph 12 mph 54 % 0 in
19:02 65.8 °F 48.2 °F 30.2 in NNW 3 mph 12 mph 53 % 0 in
19:07 65.7 °F 48 °F 30.2 in WNW 6 mph 9 mph 53 % 0 in
19:12 65.7 °F 48.6 °F 30.2 in NW 2 mph 9 mph 54 % 0 in
19:17 65.7 °F 48.6 °F 30.2 in WNW 3 mph 8 mph 54 % 0 in
19:22 65.5 °F 48.4 °F 30.2 in WNW 3 mph 8 mph 54 % 0 in
19:27 65.5 °F 48.4 °F 30.2 in WNW 3 mph 7 mph 54 % 0 in
19:32 65.5 °F 48.4 °F 30.2 in WNW 5 mph 7 mph 54 % 0 in
19:37 65.5 °F 48.4 °F 30.2 in NNW 3 mph 8 mph 54 % 0 in
19:42 65.3 °F 48.7 °F 30.2 in WNW 5 mph 8 mph 55 % 0 in
19:47 65.1 °F 48.6 °F 30.2 in WNW 5 mph 8 mph 55 % 0 in
19:52 65.1 °F 48.6 °F 30.2 in WNW 3 mph 8 mph 55 % 0 in
19:57 64.9 °F 48.9 °F 30.2 in West 2 mph 8 mph 56 % 0 in
20:02 64.9 °F 48.4 °F 30.2 in NW 4 mph 6 mph 55 % 0 in
20:12 64.8 °F 48.7 °F 30.2 in WNW 2 mph 7 mph 56 % 0 in
20:17 64.6 °F 48.9 °F 30.2 in West 1 mph 6 mph 57 % 0 in
20:22 64.6 °F 48.9 °F 30.2 in West 1 mph 5 mph 57 % 0 in
20:27 64.4 °F 48.9 °F 30.2 in West 1 mph 4 mph 57 % 0 in
20:32 64.2 °F 48.7 °F 30.2 in Calm   3 mph 57 % 0 in
20:37 64.2 °F 49.1 °F 30.2 in WNW 2 mph 2 mph 58 % 0 in
20:42 64.2 °F 49.1 °F 30.2 in West 3 mph 3 mph 58 % 0 in
20:47 64 °F 48.9 °F 30.2 in Calm   4 mph 58 % 0 in
20:52 63.9 °F 49.3 °F 30.2 in West 1 mph 4 mph 59 % 0 in
20:57 63.9 °F 49.3 °F 30.2 in WNW 1 mph 4 mph 59 % 0 in
21:02 63.9 °F 49.3 °F 30.2 in West 1 mph 3 mph 59 % 0 in
21:07 63.9 °F 49.3 °F 30.2 in WNW 1 mph 3 mph 59 % 0 in
21:12 63.7 °F 49.1 °F 30.2 in Calm   3 mph 59 % 0 in
21:17 63.7 °F 49.5 °F 30.2 in West 1 mph 3 mph 60 % 0 in
21:22 63.5 °F 49.3 °F 30.2 in WNW 2 mph 2 mph 60 % 0 in
21:27 63.5 °F 49.3 °F 30.2 in Calm   2 mph 60 % 0 in
21:32 63.3 °F 49.6 °F 30.2 in NW 2 mph 2 mph 61 % 0 in
21:37 63.3 °F 49.6 °F 30.3 in Calm   2 mph 61 % 0 in
21:42 63.1 °F 49.5 °F 30.3 in WNW 1 mph 2 mph 61 % 0 in
21:47 63 °F 49.8 °F 30.2 in WNW 2 mph 3 mph 62 % 0 in
21:52 63 °F 49.8 °F 30.2 in WNW 1 mph 3 mph 62 % 0 in
21:57 62.8 °F 49.6 °F 30.2 in Calm   3 mph 62 % 0 in
22:02 62.8 °F 50 °F 30.2 in WNW 1 mph 3 mph 63 % 0 in
22:07 62.8 °F 50 °F 30.2 in WNW 1 mph 3 mph 63 % 0 in
22:12 62.8 °F 50 °F 30.2 in NW 2 mph 3 mph 63 % 0 in
22:17 62.6 °F 49.8 °F 30.2 in Calm   3 mph 63 % 0 in
22:22 62.6 °F 50.2 °F 30.2 in WNW 4 mph 5 mph 64 % 0 in
22:27 62.4 °F 50 °F 30.2 in West 1 mph 5 mph 64 % 0 in
22:32 62.4 °F 50 °F 30.2 in West 2 mph 6 mph 64 % 0 in
22:37 62.4 °F 50 °F 30.2 in West 2 mph 6 mph 64 % 0 in
22:42 62.2 °F 50.4 °F 30.2 in WNW 2 mph 6 mph 65 % 0 in
22:52 62.2 °F 50.4 °F 30.2 in WNW 1 mph 5 mph 65 % 0 in
22:57 62.2 °F 50.4 °F 30.2 in West 3 mph 5 mph 65 % 0 in
23:02 62.2 °F 50.4 °F 30.2 in West 3 mph 5 mph 65 % 0 in
23:07 62.2 °F 50.4 °F 30.2 in WNW 2 mph 5 mph 65 % 0 in
23:12 62.2 °F 50.4 °F 30.2 in West 3 mph 5 mph 65 % 0 in
23:17 62.1 °F 50.2 °F 30.2 in West 2 mph 6 mph 65 % 0 in
23:22 62.1 °F 50.5 °F 30.2 in West 4 mph 6 mph 66 % 0 in
23:27 62.1 °F 50.5 °F 30.2 in West 2 mph 6 mph 66 % 0 in
23:32 61.9 °F 50.4 °F 30.2 in WNW 2 mph 6 mph 66 % 0 in
23:37 61.9 °F 50.4 °F 30.2 in West 4 mph 6 mph 66 % 0 in
23:42 61.9 °F 50.4 °F 30.2 in West 2 mph 8 mph 66 % 0 in
23:47 61.9 °F 50.4 °F 30.2 in WNW 2 mph 8 mph 66 % 0 in
23:52 61.9 °F 50.4 °F 30.2 in WNW 4 mph 8 mph 66 % 0 in
23:57 61.9 °F 50.4 °F 30.2 in WSW 2 mph 7 mph 66 % 0 in
Meteo18
Compliments of Weather Underground - 4 mb

Script developed by  Jim McMurry - jmcmurry@mwt.net Adapted for the template by  Wim van der Kuil - Leuven-Template.eu

You find our weather info also at:

European Weather Network

Weather Underground

Equipment we use:

Weather-station
Davis Vue

Weather-program
Meteohub

Weather-server
Raspberry PI 2 B+

Provider
1 and 1

Davis Vue

Meteohub

Raspberry PI 2 B+

1 and 1